sensor_id;sensor_type;location;lat;lon;timestamp;pressure;altitude;pressure_sealevel;temperature;humidity
6198;BME280;3132;42.622;23.328;2024-01-15T00:01:11;92142.75;;;-0.69;77.44
6198;BME280;3132;42.622;23.328;2024-01-15T00:03:36;92137.41;;;-0.56;77.18
6198;BME280;3132;42.622;23.328;2024-01-15T00:06:02;92142.75;;;-0.46;76.54
6198;BME280;3132;42.622;23.328;2024-01-15T00:08:27;92149.22;;;-0.55;76.21
6198;BME280;3132;42.622;23.328;2024-01-15T00:10:53;92134.06;;;-0.80;76.96
6198;BME280;3132;42.622;23.328;2024-01-15T00:13:18;92154.69;;;-0.75;77.34
6198;BME280;3132;42.622;23.328;2024-01-15T00:15:43;92151.78;;;-0.67;77.18
6198;BME280;3132;42.622;23.328;2024-01-15T00:18:09;92156.78;;;-0.60;76.57
6198;BME280;3132;42.622;23.328;2024-01-15T00:20:34;92136.53;;;-0.73;78.26
6198;BME280;3132;42.622;23.328;2024-01-15T00:22:59;92137.72;;;-0.76;78.35
6198;BME280;3132;42.622;23.328;2024-01-15T00:25:25;92149.88;;;-0.60;77.54
6198;BME280;3132;42.622;23.328;2024-01-15T00:27:50;92140.50;;;-1.00;79.15
6198;BME280;3132;42.622;23.328;2024-01-15T00:30:15;92120.22;;;-1.02;79.37
6198;BME280;3132;42.622;23.328;2024-01-15T00:32:41;92130.28;;;-0.77;78.92
6198;BME280;3132;42.622;23.328;2024-01-15T00:35:06;92144.50;;;-0.93;78.40
6198;BME280;3132;42.622;23.328;2024-01-15T00:37:32;92151.31;;;-0.64;78.19
6198;BME280;3132;42.622;23.328;2024-01-15T00:39:57;92150.09;;;-0.84;78.78
6198;BME280;3132;42.622;23.328;2024-01-15T00:42:23;92158.44;;;-0.89;79.20
6198;BME280;3132;42.622;23.328;2024-01-15T00:44:48;92126.09;;;-1.13;79.07
6198;BME280;3132;42.622;23.328;2024-01-15T00:47:13;92149.84;;;-0.94;79.33
6198;BME280;3132;42.622;23.328;2024-01-15T00:49:39;92142.94;;;-1.05;79.58
6198;BME280;3132;42.622;23.328;2024-01-15T00:52:05;92154.41;;;-0.96;79.72
6198;BME280;3132;42.622;23.328;2024-01-15T00:54:30;92129.38;;;-0.83;79.18
6198;BME280;3132;42.622;23.328;2024-01-15T00:56:55;92145.31;;;-0.92;79.76
6198;BME280;3132;42.622;23.328;2024-01-15T00:59:21;92142.03;;;-0.99;79.70
6198;BME280;3132;42.622;23.328;2024-01-15T01:01:46;92137.94;;;-1.00;80.18
6198;BME280;3132;42.622;23.328;2024-01-15T01:04:12;92137.38;;;-1.02;80.26
6198;BME280;3132;42.622;23.328;2024-01-15T01:06:38;92140.19;;;-0.92;80.49
6198;BME280;3132;42.622;23.328;2024-01-15T01:09:03;92129.81;;;-0.97;79.71
6198;BME280;3132;42.622;23.328;2024-01-15T01:11:28;92140.75;;;-0.90;79.82
6198;BME280;3132;42.622;23.328;2024-01-15T01:13:54;92147.59;;;-1.02;80.35
6198;BME280;3132;42.622;23.328;2024-01-15T01:16:19;92143.69;;;-1.16;80.71
6198;BME280;3132;42.622;23.328;2024-01-15T01:18:45;92143.38;;;-1.08;80.55
6198;BME280;3132;42.622;23.328;2024-01-15T01:21:10;92138.25;;;-1.08;81.03
6198;BME280;3132;42.622;23.328;2024-01-15T01:23:35;92135.69;;;-1.08;81.37
6198;BME280;3132;42.622;23.328;2024-01-15T01:26:00;92113.72;;;-1.27;81.34
6198;BME280;3132;42.622;23.328;2024-01-15T01:28:27;92127.91;;;-1.02;80.75
6198;BME280;3132;42.622;23.328;2024-01-15T01:30:53;92118.34;;;-1.06;81.57
6198;BME280;3132;42.622;23.328;2024-01-15T01:33:18;92123.81;;;-1.03;80.42
6198;BME280;3132;42.622;23.328;2024-01-15T01:35:44;92124.03;;;-1.04;80.69
6198;BME280;3132;42.622;23.328;2024-01-15T01:38:10;92111.09;;;-0.98;79.88
6198;BME280;3132;42.622;23.328;2024-01-15T01:40:35;92112.28;;;-1.12;80.00
6198;BME280;3132;42.622;23.328;2024-01-15T01:43:02;92119.75;;;-1.10;79.96
6198;BME280;3132;42.622;23.328;2024-01-15T01:45:28;92106.53;;;-0.96;79.58
6198;BME280;3132;42.622;23.328;2024-01-15T01:47:53;92120.25;;;-0.90;79.56
6198;BME280;3132;42.622;23.328;2024-01-15T01:50:19;92117.56;;;-0.95;79.18
6198;BME280;3132;42.622;23.328;2024-01-15T01:52:45;92097.47;;;-1.21;80.06
6198;BME280;3132;42.622;23.328;2024-01-15T01:55:11;92118.34;;;-1.06;80.84
6198;BME280;3132;42.622;23.328;2024-01-15T01:57:37;92098.16;;;-1.14;81.02
6198;BME280;3132;42.622;23.328;2024-01-15T02:00:04;92120.19;;;-1.13;81.12
6198;BME280;3132;42.622;23.328;2024-01-15T02:02:31;92073.44;;;-1.20;80.14
6198;BME280;3132;42.622;23.328;2024-01-15T02:04:57;92077.69;;;-1.14;80.13
6198;BME280;3132;42.622;23.328;2024-01-15T02:07:22;92096.28;;;-1.19;81.42
6198;BME280;3132;42.622;23.328;2024-01-15T02:09:49;92054.44;;;-1.66;82.05
6198;BME280;3132;42.622;23.328;2024-01-15T02:12:14;92083.97;;;-1.40;84.68
6198;BME280;3132;42.622;23.328;2024-01-15T02:14:40;92087.38;;;-1.05;82.61
6198;BME280;3132;42.622;23.328;2024-01-15T02:17:06;92085.91;;;-1.24;83.52
6198;BME280;3132;42.622;23.328;2024-01-15T02:19:31;92079.66;;;-1.16;81.81
6198;BME280;3132;42.622;23.328;2024-01-15T02:21:57;92062.41;;;-1.32;82.13
6198;BME280;3132;42.622;23.328;2024-01-15T02:24:22;92068.31;;;-1.20;80.77
6198;BME280;3132;42.622;23.328;2024-01-15T02:26:48;92066.84;;;-1.39;82.04
6198;BME280;3132;42.622;23.328;2024-01-15T02:29:14;92034.59;;;-1.06;80.60
6198;BME280;3132;42.622;23.328;2024-01-15T02:31:40;92002.19;;;-1.23;80.88
6198;BME280;3132;42.622;23.328;2024-01-15T02:34:05;92018.91;;;-1.32;89.67
6198;BME280;3132;42.622;23.328;2024-01-15T02:36:31;92019.75;;;-1.38;81.96
6198;BME280;3132;42.622;23.328;2024-01-15T02:38:56;92023.69;;;-1.01;79.86
6198;BME280;3132;42.622;23.328;2024-01-15T02:41:21;92018.53;;;-0.90;79.22
6198;BME280;3132;42.622;23.328;2024-01-15T02:43:47;92030.69;;;-0.85;79.01
6198;BME280;3132;42.622;23.328;2024-01-15T02:46:12;92024.34;;;-0.83;79.48
6198;BME280;3132;42.622;23.328;2024-01-15T02:48:37;92002.41;;;-1.02;79.73
6198;BME280;3132;42.622;23.328;2024-01-15T02:51:03;92029.13;;;-0.98;80.75
6198;BME280;3132;42.622;23.328;2024-01-15T02:53:28;92026.00;;;-0.77;79.52
6198;BME280;3132;42.622;23.328;2024-01-15T02:55:54;92017.94;;;-0.57;78.12
6198;BME280;3132;42.622;23.328;2024-01-15T02:58:19;92024.50;;;-0.50;78.96
6198;BME280;3132;42.622;23.328;2024-01-15T03:00:44;92023.28;;;-0.47;78.79
6198;BME280;3132;42.622;23.328;2024-01-15T03:03:11;92020.09;;;-0.66;79.15
6198;BME280;3132;42.622;23.328;2024-01-15T03:05:37;92015.94;;;-0.55;78.54
6198;BME280;3132;42.622;23.328;2024-01-15T03:08:02;91984.22;;;-0.77;78.60
6198;BME280;3132;42.622;23.328;2024-01-15T03:10:27;92026.19;;;-0.44;78.74
6198;BME280;3132;42.622;23.328;2024-01-15T03:12:53;92028.75;;;-0.44;78.26
6198;BME280;3132;42.622;23.328;2024-01-15T03:15:18;92031.53;;;-0.45;78.92
6198;BME280;3132;42.622;23.328;2024-01-15T03:17:44;92041.97;;;-0.35;78.15
6198;BME280;3132;42.622;23.328;2024-01-15T03:20:10;92025.03;;;-0.36;78.39
6198;BME280;3132;42.622;23.328;2024-01-15T03:22:35;92017.25;;;-0.41;78.68
6198;BME280;3132;42.622;23.328;2024-01-15T03:25:00;92024.25;;;-0.37;78.93
6198;BME280;3132;42.622;23.328;2024-01-15T03:27:26;92016.34;;;-0.35;79.42
6198;BME280;3132;42.622;23.328;2024-01-15T03:29:51;92010.06;;;-0.28;78.56
6198;BME280;3132;42.622;23.328;2024-01-15T03:32:17;91999.19;;;-0.46;79.52
6198;BME280;3132;42.622;23.328;2024-01-15T03:34:42;91981.34;;;-0.41;78.92
6198;BME280;3132;42.622;23.328;2024-01-15T03:37:08;92003.75;;;-0.37;78.69
6198;BME280;3132;42.622;23.328;2024-01-15T03:39:33;92006.66;;;-0.84;80.83
6198;BME280;3132;42.622;23.328;2024-01-15T03:41:59;91982.72;;;-0.50;79.30
6198;BME280;3132;42.622;23.328;2024-01-15T03:44:24;91993.16;;;-0.40;79.08
6198;BME280;3132;42.622;23.328;2024-01-15T03:46:50;92002.56;;;-0.57;79.46
6198;BME280;3132;42.622;23.328;2024-01-15T03:49:15;92007.91;;;-0.47;78.80
6198;BME280;3132;42.622;23.328;2024-01-15T03:51:40;92004.31;;;-0.46;78.71
6198;BME280;3132;42.622;23.328;2024-01-15T03:54:06;92015.81;;;-0.49;78.56
6198;BME280;3132;42.622;23.328;2024-01-15T03:56:31;91997.91;;;-0.60;79.23
6198;BME280;3132;42.622;23.328;2024-01-15T03:58:57;91997.06;;;-0.89;80.44
6198;BME280;3132;42.622;23.328;2024-01-15T04:01:22;92003.59;;;-0.70;80.07
6198;BME280;3132;42.622;23.328;2024-01-15T04:03:47;92000.91;;;-0.63;79.88
6198;BME280;3132;42.622;23.328;2024-01-15T04:06:13;91999.59;;;-0.66;79.89
6198;BME280;3132;42.622;23.328;2024-01-15T04:08:38;91987.88;;;-0.62;79.54
6198;BME280;3132;42.622;23.328;2024-01-15T04:11:03;91984.34;;;-0.72;80.26
6198;BME280;3132;42.622;23.328;2024-01-15T04:13:32;91979.13;;;-0.89;80.63
6198;BME280;3132;42.622;23.328;2024-01-15T04:15:57;91983.47;;;-0.89;80.26
6198;BME280;3132;42.622;23.328;2024-01-15T04:18:23;91956.44;;;-0.97;81.22
6198;BME280;3132;42.622;23.328;2024-01-15T04:20:48;91962.41;;;-0.80;80.93
6198;BME280;3132;42.622;23.328;2024-01-15T04:23:13;91969.19;;;-0.85;81.06
6198;BME280;3132;42.622;23.328;2024-01-15T04:25:39;91974.88;;;-0.83;81.15
6198;BME280;3132;42.622;23.328;2024-01-15T04:28:08;91987.16;;;-0.97;81.19
6198;BME280;3132;42.622;23.328;2024-01-15T04:30:33;91978.69;;;-0.97;81.12
6198;BME280;3132;42.622;23.328;2024-01-15T04:32:58;91991.28;;;-1.07;81.34
6198;BME280;3132;42.622;23.328;2024-01-15T04:35:24;91990.06;;;-1.05;81.38
6198;BME280;3132;42.622;23.328;2024-01-15T04:37:49;91984.16;;;-1.05;81.28
6198;BME280;3132;42.622;23.328;2024-01-15T04:40:14;91990.16;;;-1.11;82.08
6198;BME280;3132;42.622;23.328;2024-01-15T04:42:40;91985.03;;;-1.23;82.07
6198;BME280;3132;42.622;23.328;2024-01-15T04:45:05;91979.47;;;-1.08;81.92
6198;BME280;3132;42.622;23.328;2024-01-15T04:47:31;91969.78;;;-1.18;81.77
6198;BME280;3132;42.622;23.328;2024-01-15T04:49:56;91976.25;;;-1.04;81.02
6198;BME280;3132;42.622;23.328;2024-01-15T04:52:21;91978.72;;;-1.32;82.11
6198;BME280;3132;42.622;23.328;2024-01-15T04:54:47;91958.13;;;-1.25;81.51
6198;BME280;3132;42.622;23.328;2024-01-15T04:57:12;91973.13;;;-1.06;81.49
6198;BME280;3132;42.622;23.328;2024-01-15T04:59:37;91957.44;;;-1.09;81.29
6198;BME280;3132;42.622;23.328;2024-01-15T05:02:03;91957.44;;;-1.09;81.92
6198;BME280;3132;42.622;23.328;2024-01-15T05:04:28;91941.53;;;-1.11;81.62
6198;BME280;3132;42.622;23.328;2024-01-15T05:06:55;91926.94;;;-1.11;80.95
6198;BME280;3132;42.622;23.328;2024-01-15T05:09:20;91941.19;;;-1.03;81.15
6198;BME280;3132;42.622;23.328;2024-01-15T05:11:45;91938.09;;;-0.77;80.71
6198;BME280;3132;42.622;23.328;2024-01-15T05:14:11;91922.78;;;-0.89;80.83
6198;BME280;3132;42.622;23.328;2024-01-15T05:16:40;91921.59;;;-1.09;81.39
6198;BME280;3132;42.622;23.328;2024-01-15T05:19:11;91925.81;;;-1.03;81.46
6198;BME280;3132;42.622;23.328;2024-01-15T05:21:36;91936.53;;;-1.29;81.45
6198;BME280;3132;42.622;23.328;2024-01-15T05:24:02;91927.50;;;-1.20;82.77
6198;BME280;3132;42.622;23.328;2024-01-15T05:26:27;91945.84;;;-0.89;80.97
6198;BME280;3132;42.622;23.328;2024-01-15T05:28:52;91958.88;;;-1.13;82.20
6198;BME280;3132;42.622;23.328;2024-01-15T05:31:17;91942.31;;;-0.71;80.65
6198;BME280;3132;42.622;23.328;2024-01-15T05:33:43;91943.47;;;-0.79;79.24
6198;BME280;3132;42.622;23.328;2024-01-15T05:36:08;91933.59;;;-0.98;79.98
6198;BME280;3132;42.622;23.328;2024-01-15T05:38:33;91951.84;;;-0.83;80.86
6198;BME280;3132;42.622;23.328;2024-01-15T05:40:59;91945.22;;;-0.68;81.12
6198;BME280;3132;42.622;23.328;2024-01-15T05:43:24;91937.69;;;-0.46;84.32
6198;BME280;3132;42.622;23.328;2024-01-15T05:45:50;91948.84;;;-0.52;80.53
6198;BME280;3132;42.622;23.328;2024-01-15T05:48:15;91938.59;;;-0.52;79.79
6198;BME280;3132;42.622;23.328;2024-01-15T05:50:41;91929.81;;;-0.56;79.51
6198;BME280;3132;42.622;23.328;2024-01-15T05:53:06;91912.94;;;-0.69;79.48
6198;BME280;3132;42.622;23.328;2024-01-15T05:55:32;91927.56;;;-0.53;78.78
6198;BME280;3132;42.622;23.328;2024-01-15T05:57:57;91930.34;;;-0.54;79.27
6198;BME280;3132;42.622;23.328;2024-01-15T06:00:22;91937.50;;;-0.56;78.26
6198;BME280;3132;42.622;23.328;2024-01-15T06:02:48;91946.38;;;-0.47;78.16
6198;BME280;3132;42.622;23.328;2024-01-15T06:05:13;91931.56;;;-0.45;77.93
6198;BME280;3132;42.622;23.328;2024-01-15T06:07:38;91938.78;;;-0.42;78.10
6198;BME280;3132;42.622;23.328;2024-01-15T06:10:04;91893.88;;;-0.73;77.95
6198;BME280;3132;42.622;23.328;2024-01-15T06:12:30;91933.22;;;-0.39;77.76
6198;BME280;3132;42.622;23.328;2024-01-15T06:14:56;91933.97;;;-0.39;78.01
6198;BME280;3132;42.622;23.328;2024-01-15T06:17:21;91929.75;;;-0.45;78.48
6198;BME280;3132;42.622;23.328;2024-01-15T06:19:46;91923.22;;;-0.24;81.12
6198;BME280;3132;42.622;23.328;2024-01-15T06:22:12;91928.72;;;-0.16;77.85
6198;BME280;3132;42.622;23.328;2024-01-15T06:24:37;91932.50;;;-0.07;77.97
6198;BME280;3132;42.622;23.328;2024-01-15T06:27:02;91930.22;;;-0.20;79.64
6198;BME280;3132;42.622;23.328;2024-01-15T06:29:28;91923.00;;;-0.06;78.37
6198;BME280;3132;42.622;23.328;2024-01-15T06:31:53;91925.50;;;-0.11;78.06
6198;BME280;3132;42.622;23.328;2024-01-15T06:34:19;91923.03;;;0.11;77.50
6198;BME280;3132;42.622;23.328;2024-01-15T06:36:44;91914.00;;;0.08;77.58
6198;BME280;3132;42.622;23.328;2024-01-15T06:39:10;91929.09;;;0.38;77.55
6198;BME280;3132;42.622;23.328;2024-01-15T06:41:35;91935.78;;;0.55;76.55
6198;BME280;3132;42.622;23.328;2024-01-15T06:44:06;91920.81;;;0.69;76.25
6198;BME280;3132;42.622;23.328;2024-01-15T06:46:32;91937.75;;;0.86;75.75
6198;BME280;3132;42.622;23.328;2024-01-15T06:48:57;91935.09;;;0.98;75.56
6198;BME280;3132;42.622;23.328;2024-01-15T06:51:22;91947.13;;;1.35;74.13
6198;BME280;3132;42.622;23.328;2024-01-15T06:53:48;91939.78;;;1.44;73.16
6198;BME280;3132;42.622;23.328;2024-01-15T06:56:13;91931.41;;;1.53;73.48
6198;BME280;3132;42.622;23.328;2024-01-15T06:58:38;91940.59;;;1.28;75.34
6198;BME280;3132;42.622;23.328;2024-01-15T07:01:04;91946.84;;;0.56;76.50
6198;BME280;3132;42.622;23.328;2024-01-15T07:03:29;91931.41;;;1.10;75.08
6198;BME280;3132;42.622;23.328;2024-01-15T07:05:55;91936.47;;;1.48;75.04
6198;BME280;3132;42.622;23.328;2024-01-15T07:08:20;91946.59;;;1.55;74.58
6198;BME280;3132;42.622;23.328;2024-01-15T07:10:45;91931.06;;;1.72;72.78
6198;BME280;3132;42.622;23.328;2024-01-15T07:13:11;91966.00;;;1.89;72.47
6198;BME280;3132;42.622;23.328;2024-01-15T07:15:36;91953.09;;;1.19;75.08
6198;BME280;3132;42.622;23.328;2024-01-15T07:18:01;91956.28;;;1.26;81.74
6198;BME280;3132;42.622;23.328;2024-01-15T07:20:27;91933.34;;;1.41;75.07
6198;BME280;3132;42.622;23.328;2024-01-15T07:22:52;91937.56;;;1.79;78.54
6198;BME280;3132;42.622;23.328;2024-01-15T07:25:18;91940.94;;;1.80;74.67
6198;BME280;3132;42.622;23.328;2024-01-15T07:27:43;91934.09;;;1.90;74.31
6198;BME280;3132;42.622;23.328;2024-01-15T07:30:11;91941.56;;;1.92;73.95
6198;BME280;3132;42.622;23.328;2024-01-15T07:32:36;91919.97;;;1.93;72.47
6198;BME280;3132;42.622;23.328;2024-01-15T07:35:02;91924.44;;;2.02;72.28
6198;BME280;3132;42.622;23.328;2024-01-15T07:37:27;91943.91;;;2.20;72.49
6198;BME280;3132;42.622;23.328;2024-01-15T07:39:53;91920.09;;;2.34;71.70
6198;BME280;3132;42.622;23.328;2024-01-15T07:42:19;91941.41;;;2.30;71.57
6198;BME280;3132;42.622;23.328;2024-01-15T07:44:44;91944.69;;;2.52;70.51
6198;BME280;3132;42.622;23.328;2024-01-15T07:47:10;91939.84;;;2.60;69.70
6198;BME280;3132;42.622;23.328;2024-01-15T07:49:35;91947.66;;;2.39;70.67
6198;BME280;3132;42.622;23.328;2024-01-15T07:52:01;91960.91;;;2.84;69.53
6198;BME280;3132;42.622;23.328;2024-01-15T07:54:26;91954.88;;;3.10;68.37
6198;BME280;3132;42.622;23.328;2024-01-15T07:56:59;91958.06;;;3.22;67.11
6198;BME280;3132;42.622;23.328;2024-01-15T07:59:26;91946.44;;;3.24;67.91
6198;BME280;3132;42.622;23.328;2024-01-15T08:01:51;91942.75;;;3.10;68.50
6198;BME280;3132;42.622;23.328;2024-01-15T08:04:17;91926.06;;;3.23;67.87
6198;BME280;3132;42.622;23.328;2024-01-15T08:06:42;91922.22;;;3.25;68.19
6198;BME280;3132;42.622;23.328;2024-01-15T08:09:08;91927.75;;;3.54;67.48
6198;BME280;3132;42.622;23.328;2024-01-15T08:11:34;91924.97;;;3.71;67.72
6198;BME280;3132;42.622;23.328;2024-01-15T08:14:00;91934.47;;;3.60;67.81
6198;BME280;3132;42.622;23.328;2024-01-15T08:16:25;91946.41;;;3.19;68.78
6198;BME280;3132;42.622;23.328;2024-01-15T08:18:52;91921.69;;;2.82;69.91
6198;BME280;3132;42.622;23.328;2024-01-15T08:21:18;91925.75;;;3.09;67.33
6198;BME280;3132;42.622;23.328;2024-01-15T08:23:44;91946.06;;;3.01;67.16
6198;BME280;3132;42.622;23.328;2024-01-15T08:26:10;91951.66;;;2.88;67.57
6198;BME280;3132;42.622;23.328;2024-01-15T08:28:35;91957.91;;;2.34;68.69
6198;BME280;3132;42.622;23.328;2024-01-15T08:31:01;91920.72;;;2.51;67.51
6198;BME280;3132;42.622;23.328;2024-01-15T08:33:26;91937.78;;;2.57;69.14
6198;BME280;3132;42.622;23.328;2024-01-15T08:35:51;91936.41;;;2.13;70.22
6198;BME280;3132;42.622;23.328;2024-01-15T08:38:18;91933.59;;;1.93;70.54
6198;BME280;3132;42.622;23.328;2024-01-15T08:40:44;91925.44;;;2.28;68.60
6198;BME280;3132;42.622;23.328;2024-01-15T08:43:09;91927.50;;;2.31;67.79
6198;BME280;3132;42.622;23.328;2024-01-15T08:45:35;91920.44;;;2.48;67.90
6198;BME280;3132;42.622;23.328;2024-01-15T08:48:00;91915.88;;;2.55;67.65
6198;BME280;3132;42.622;23.328;2024-01-15T08:50:26;91913.09;;;2.30;68.23
6198;BME280;3132;42.622;23.328;2024-01-15T08:52:51;91914.88;;;2.61;67.80
6198;BME280;3132;42.622;23.328;2024-01-15T08:55:17;91921.13;;;2.38;68.45
6198;BME280;3132;42.622;23.328;2024-01-15T08:57:42;91915.25;;;1.85;71.05
6198;BME280;3132;42.622;23.328;2024-01-15T09:00:08;91906.19;;;1.77;72.44
6198;BME280;3132;42.622;23.328;2024-01-15T09:02:34;91903.63;;;1.77;70.92
6198;BME280;3132;42.622;23.328;2024-01-15T09:05:00;91906.44;;;2.02;70.66
6198;BME280;3132;42.622;23.328;2024-01-15T09:07:26;91895.56;;;2.58;68.99
6198;BME280;3132;42.622;23.328;2024-01-15T09:09:52;91888.69;;;2.74;68.49
6198;BME280;3132;42.622;23.328;2024-01-15T09:12:18;91881.47;;;2.76;68.38
6198;BME280;3132;42.622;23.328;2024-01-15T09:14:46;91873.34;;;2.94;68.21
6198;BME280;3132;42.622;23.328;2024-01-15T09:17:11;91838.53;;;2.96;68.00
6198;BME280;3132;42.622;23.328;2024-01-15T09:19:37;91847.94;;;3.17;67.23
6198;BME280;3132;42.622;23.328;2024-01-15T09:22:04;91848.75;;;3.38;65.67
6198;BME280;3132;42.622;23.328;2024-01-15T09:24:29;91824.03;;;3.52;64.68
6198;BME280;3132;42.622;23.328;2024-01-15T09:26:54;91824.84;;;3.73;64.22
6198;BME280;3132;42.622;23.328;2024-01-15T09:29:20;91835.16;;;2.86;65.16
6198;BME280;3132;42.622;23.328;2024-01-15T09:31:45;91826.09;;;3.60;62.62
6198;BME280;3132;42.622;23.328;2024-01-15T09:34:10;91834.38;;;3.62;64.02
6198;BME280;3132;42.622;23.328;2024-01-15T09:36:40;91844.69;;;3.62;62.32
6198;BME280;3132;42.622;23.328;2024-01-15T09:39:09;91834.00;;;3.28;63.12
6198;BME280;3132;42.622;23.328;2024-01-15T09:41:36;91816.88;;;2.97;64.96
6198;BME280;3132;42.622;23.328;2024-01-15T09:44:03;91835.91;;;3.53;63.48
6198;BME280;3132;42.622;23.328;2024-01-15T09:46:28;91818.84;;;3.47;62.78
6198;BME280;3132;42.622;23.328;2024-01-15T09:48:54;91804.63;;;3.29;63.23
6198;BME280;3132;42.622;23.328;2024-01-15T09:51:19;91798.34;;;2.95;64.77
6198;BME280;3132;42.622;23.328;2024-01-15T09:53:46;91801.56;;;2.71;67.01
6198;BME280;3132;42.622;23.328;2024-01-15T09:56:12;91768.16;;;1.93;71.18
6198;BME280;3132;42.622;23.328;2024-01-15T09:58:38;91774.59;;;2.37;68.28
6198;BME280;3132;42.622;23.328;2024-01-15T10:01:04;91771.91;;;2.63;66.67
6198;BME280;3132;42.622;23.328;2024-01-15T10:03:30;91781.59;;;2.98;65.36
6198;BME280;3132;42.622;23.328;2024-01-15T10:05:58;91799.66;;;3.03;63.35
6198;BME280;3132;42.622;23.328;2024-01-15T10:08:25;91780.22;;;2.80;64.13
6198;BME280;3132;42.622;23.328;2024-01-15T10:10:50;91779.00;;;2.41;64.95
6198;BME280;3132;42.622;23.328;2024-01-15T10:13:16;91775.19;;;2.49;65.86
6198;BME280;3132;42.622;23.328;2024-01-15T10:15:45;91754.75;;;2.99;64.21
6198;BME280;3132;42.622;23.328;2024-01-15T10:18:11;91763.00;;;2.96;65.76
6198;BME280;3132;42.622;23.328;2024-01-15T10:20:37;91764.50;;;2.77;66.61
6198;BME280;3132;42.622;23.328;2024-01-15T10:23:03;91749.31;;;2.75;67.42
6198;BME280;3132;42.622;23.328;2024-01-15T10:25:29;91732.91;;;3.16;66.36
6198;BME280;3132;42.622;23.328;2024-01-15T10:59:48;91714.03;;;2.91;69.46
6198;BME280;3132;42.622;23.328;2024-01-15T11:02:14;91715.41;;;3.33;67.12
6198;BME280;3132;42.622;23.328;2024-01-15T11:04:40;91699.66;;;3.95;65.04
6198;BME280;3132;42.622;23.328;2024-01-15T11:07:06;91699.38;;;4.07;64.38
6198;BME280;3132;42.622;23.328;2024-01-15T11:09:32;91696.28;;;3.95;63.66
6198;BME280;3132;42.622;23.328;2024-01-15T11:12:11;91694.47;;;4.05;64.26
6198;BME280;3132;42.622;23.328;2024-01-15T11:14:41;91692.03;;;4.44;62.75
6198;BME280;3132;42.622;23.328;2024-01-15T11:17:09;91691.34;;;4.18;63.32
6198;BME280;3132;42.622;23.328;2024-01-15T11:22:08;91692.63;;;4.26;61.99
6198;BME280;3132;42.622;23.328;2024-01-15T11:24:39;91693.50;;;4.70;61.26
6198;BME280;3132;42.622;23.328;2024-01-15T11:27:05;91694.66;;;5.03;60.52
6198;BME280;3132;42.622;23.328;2024-01-15T11:29:35;91692.63;;;4.31;62.73
6198;BME280;3132;42.622;23.328;2024-01-15T11:32:08;91676.50;;;5.08;60.38
6198;BME280;3132;42.622;23.328;2024-01-15T11:37:25;91694.00;;;5.26;59.95
6198;BME280;3132;42.622;23.328;2024-01-15T11:39:52;91687.97;;;5.69;59.50
6198;BME280;3132;42.622;23.328;2024-01-15T11:42:20;91671.94;;;4.89;60.06
6198;BME280;3132;42.622;23.328;2024-01-15T11:44:46;91673.56;;;4.80;61.57
6198;BME280;3132;42.622;23.328;2024-01-15T11:47:12;91682.41;;;5.18;60.36
6198;BME280;3132;42.622;23.328;2024-01-15T11:52:35;91663.53;;;5.13;59.74
6198;BME280;3132;42.622;23.328;2024-01-15T11:55:14;91672.50;;;5.59;59.14
6198;BME280;3132;42.622;23.328;2024-01-15T11:57:51;91656.53;;;5.18;59.89
6198;BME280;3132;42.622;23.328;2024-01-15T12:00:17;91661.59;;;4.94;60.49
6198;BME280;3132;42.622;23.328;2024-01-15T12:02:45;91650.19;;;5.34;59.29
6198;BME280;3132;42.622;23.328;2024-01-15T12:05:20;91661.44;;;5.20;59.79
6198;BME280;3132;42.622;23.328;2024-01-15T12:07:47;91652.69;;;5.78;58.83
6198;BME280;3132;42.622;23.328;2024-01-15T12:10:17;91642.59;;;5.48;58.87
6198;BME280;3132;42.622;23.328;2024-01-15T12:13:11;91634.38;;;5.41;59.50
6198;BME280;3132;42.622;23.328;2024-01-15T12:15:38;91639.31;;;5.71;59.15
6198;BME280;3132;42.622;23.328;2024-01-15T12:18:07;91635.06;;;5.80;58.48
6198;BME280;3132;42.622;23.328;2024-01-15T12:20:33;91649.03;;;5.50;59.95
6198;BME280;3132;42.622;23.328;2024-01-15T12:22:59;91620.66;;;5.02;61.64
6198;BME280;3132;42.622;23.328;2024-01-15T12:35:54;91641.00;;;4.74;63.87
6198;BME280;3132;42.622;23.328;2024-01-15T12:38:19;91629.31;;;4.87;62.88
6198;BME280;3132;42.622;23.328;2024-01-15T12:40:45;91620.88;;;4.71;63.45
6198;BME280;3132;42.622;23.328;2024-01-15T12:43:14;91637.53;;;5.33;63.26
6198;BME280;3132;42.622;23.328;2024-01-15T12:45:40;91623.84;;;5.32;62.20
6198;BME280;3132;42.622;23.328;2024-01-15T12:48:06;91603.09;;;4.98;62.84
6198;BME280;3132;42.622;23.328;2024-01-15T12:50:33;91623.09;;;5.27;64.02
6198;BME280;3132;42.622;23.328;2024-01-15T12:52:58;91618.97;;;5.26;63.63
6198;BME280;3132;42.622;23.328;2024-01-15T12:55:24;91618.78;;;5.51;64.17
6198;BME280;3132;42.622;23.328;2024-01-15T12:57:50;91615.31;;;5.89;63.01
6198;BME280;3132;42.622;23.328;2024-01-15T13:00:19;91605.53;;;5.81;64.10
6198;BME280;3132;42.622;23.328;2024-01-15T13:02:44;91601.41;;;5.85;64.01
6198;BME280;3132;42.622;23.328;2024-01-15T13:05:10;91608.72;;;6.01;62.16
6198;BME280;3132;42.622;23.328;2024-01-15T13:07:36;91599.25;;;5.92;63.62
6198;BME280;3132;42.622;23.328;2024-01-15T13:10:02;91606.19;;;6.20;63.02
6198;BME280;3132;42.622;23.328;2024-01-15T13:12:27;91595.19;;;6.09;63.93
6198;BME280;3132;42.622;23.328;2024-01-15T13:14:53;91577.53;;;5.88;65.20
6198;BME280;3132;42.622;23.328;2024-01-15T13:17:18;91581.28;;;6.24;64.46
6198;BME280;3132;42.622;23.328;2024-01-15T13:19:46;91577.25;;;5.61;66.16
6198;BME280;3132;42.622;23.328;2024-01-15T13:22:11;91574.13;;;5.35;67.74
6198;BME280;3132;42.622;23.328;2024-01-15T13:24:39;91580.75;;;6.03;66.51
6198;BME280;3132;42.622;23.328;2024-01-15T13:27:04;91582.78;;;6.06;66.47
6198;BME280;3132;42.622;23.328;2024-01-15T13:29:31;91577.41;;;5.74;68.05
6198;BME280;3132;42.622;23.328;2024-01-15T13:31:57;91568.63;;;5.99;67.20
6198;BME280;3132;42.622;23.328;2024-01-15T13:34:22;91574.41;;;5.91;68.29
6198;BME280;3132;42.622;23.328;2024-01-15T13:36:48;91571.72;;;5.72;68.02
6198;BME280;3132;42.622;23.328;2024-01-15T13:39:15;91567.34;;;5.68;69.29
6198;BME280;3132;42.622;23.328;2024-01-15T13:41:47;91551.28;;;5.71;70.00
6198;BME280;3132;42.622;23.328;2024-01-15T13:44:13;91577.41;;;5.98;69.33
6198;BME280;3132;42.622;23.328;2024-01-15T13:46:38;91578.09;;;6.08;68.90
6198;BME280;3132;42.622;23.328;2024-01-15T13:49:03;91576.44;;;5.94;69.82
6198;BME280;3132;42.622;23.328;2024-01-15T13:51:31;91562.88;;;5.73;71.94
6198;BME280;3132;42.622;23.328;2024-01-15T13:53:57;91562.03;;;5.54;70.67
6198;BME280;3132;42.622;23.328;2024-01-15T13:56:22;91562.19;;;5.68;70.20
6198;BME280;3132;42.622;23.328;2024-01-15T13:58:48;91551.75;;;5.73;71.21
6198;BME280;3132;42.622;23.328;2024-01-15T14:01:13;91552.56;;;5.68;71.00